createdAt,value
2022-11-10T19:03:29.705Z,5.90
2022-11-10T19:06:00.179Z,6.00
2022-11-10T19:08:40.486Z,5.90
2022-11-10T19:11:11.563Z,5.90
2022-11-10T19:13:41.180Z,5.90
2022-11-10T19:16:19.940Z,5.90
2022-11-10T19:18:58.618Z,5.80
2022-11-10T19:21:32.912Z,5.80
2022-11-10T19:24:01.318Z,5.80
2022-11-10T19:26:30.424Z,5.80
2022-11-10T19:28:58.595Z,5.80
2022-11-10T19:31:29.433Z,5.80
2022-11-10T19:34:01.389Z,5.90
2022-11-10T19:36:43.764Z,5.80
2022-11-10T19:39:12.389Z,5.80
2022-11-10T19:41:45.509Z,5.80
2022-11-10T19:44:19.104Z,5.80
2022-11-10T19:46:47.867Z,5.70
2022-11-10T19:49:18.339Z,5.70
2022-11-10T19:51:59.003Z,5.60
2022-11-10T19:54:30.368Z,5.60
2022-11-10T19:57:01.560Z,5.50
2022-11-10T19:59:58.135Z,5.60
2022-11-10T20:02:33.047Z,5.50
2022-11-10T20:05:16.504Z,5.50
2022-11-10T20:08:09.692Z,5.50
2022-11-10T20:10:47.227Z,5.40
2022-11-10T20:13:15.418Z,5.50
2022-11-10T20:15:45.351Z,5.50
2022-11-10T20:18:15.935Z,5.50
2022-11-10T20:20:47.823Z,5.40
2022-11-10T20:23:17.000Z,5.40
2022-11-10T20:25:48.047Z,5.40
2022-11-10T20:28:16.189Z,5.40
2022-11-10T20:30:45.625Z,5.40
2022-11-10T20:33:13.792Z,5.40
2022-11-10T20:35:44.011Z,5.30
2022-11-10T20:38:13.760Z,5.30
2022-11-10T20:40:44.958Z,5.30
2022-11-10T20:43:14.932Z,5.20
2022-11-10T20:45:43.851Z,5.20
2022-11-10T20:48:12.966Z,5.20
2022-11-10T20:50:42.066Z,5.30
2022-11-10T20:53:10.550Z,5.30
2022-11-10T20:55:56.173Z,5.30
2022-11-10T20:58:24.882Z,5.30
2022-11-10T21:00:54.276Z,5.20
2022-11-10T21:03:23.618Z,5.20
2022-11-10T21:05:57.044Z,5.20
2022-11-10T21:08:25.172Z,5.30
2022-11-10T21:10:58.470Z,5.20
2022-11-10T21:13:36.890Z,5.20
2022-11-10T21:16:07.337Z,5.10
2022-11-10T21:18:37.437Z,5.00
2022-11-10T21:21:09.291Z,5.00
2022-11-10T21:23:39.928Z,5.00
2022-11-10T21:26:14.149Z,4.90
2022-11-10T21:28:43.855Z,4.90
2022-11-10T21:31:12.315Z,4.90
2022-11-10T21:33:40.844Z,4.80
2022-11-10T21:36:10.989Z,4.80
2022-11-10T21:38:39.467Z,4.70
2022-11-10T21:41:09.371Z,4.70
2022-11-10T21:43:43.752Z,4.60
2022-11-10T21:46:11.986Z,4.70
2022-11-10T21:48:40.421Z,4.70
2022-11-10T21:51:14.266Z,4.60
2022-11-10T21:53:43.317Z,4.60
2022-11-10T21:56:14.282Z,4.60
2022-11-10T21:58:42.695Z,4.50
2022-11-10T22:01:13.264Z,4.50
2022-11-10T22:03:41.771Z,4.50
2022-11-10T22:06:12.121Z,4.50
2022-11-10T22:08:41.724Z,4.50
2022-11-10T22:11:31.502Z,4.50
2022-11-10T22:14:17.903Z,4.50
2022-11-10T22:17:05.243Z,4.50
2022-11-10T22:19:36.980Z,4.40
2022-11-10T22:22:07.521Z,4.40
2022-11-10T22:24:35.947Z,4.40
2022-11-10T22:27:07.566Z,4.40
2022-11-10T22:29:36.598Z,4.40
2022-11-10T22:32:05.827Z,4.40
2022-11-10T22:34:34.291Z,4.40
2022-11-10T22:37:02.784Z,4.40
2022-11-10T22:39:45.365Z,4.40
2022-11-10T22:42:33.408Z,4.40
2022-11-10T22:45:10.727Z,4.30
2022-11-10T22:47:52.744Z,4.30
2022-11-10T22:50:23.916Z,4.30
2022-11-10T22:52:52.636Z,4.20
2022-11-10T22:55:20.883Z,4.20
2022-11-10T22:57:54.126Z,4.20
2022-11-10T23:00:22.574Z,4.20
2022-11-10T23:02:54.538Z,4.20
2022-11-10T23:05:24.262Z,4.20
2022-11-10T23:07:53.878Z,4.10
2022-11-10T23:10:22.453Z,4.10
2022-11-10T23:12:56.857Z,4.10
2022-11-10T23:15:26.234Z,4.00
2022-11-10T23:17:55.865Z,4.00
2022-11-10T23:20:24.104Z,3.90
2022-11-10T23:22:52.570Z,3.90
2022-11-10T23:25:20.941Z,3.90
2022-11-10T23:27:49.177Z,4.00
2022-11-10T23:30:19.846Z,4.00
2022-11-10T23:32:48.079Z,3.90
2022-11-10T23:35:16.787Z,3.80
2022-11-10T23:37:49.249Z,3.80
2022-11-10T23:40:17.415Z,3.80
2022-11-10T23:42:46.764Z,3.80
2022-11-10T23:45:16.077Z,3.80
2022-11-10T23:47:45.919Z,3.90
2022-11-10T23:50:14.172Z,3.90
2022-11-10T23:52:42.436Z,3.90
2022-11-10T23:55:11.355Z,3.80
2022-11-10T23:57:39.609Z,3.80
